Leland, MS (38756)

10:28 AM CDT on July 27, 2016 (GMT -0500)
Mississippi Delta | | Change Station

Elev 126 ft 33.40 °N, 90.91 °W | Updated 8 seconds ago

Rain
Rain
76.6 °F
Feels Like 77 °F
N
0.2
Wind Variable Wind from SSE
Gusts 2.5 mph

Today
High -- | Low -- °F
--% Chance of Precip.
Yesterday
High -- | Low -- °F
Precip. -- in
Pressure 29.97 in
Visibility 10.0 miles
Clouds Mostly Cloudy 600 ft
Mostly Cloudy 1700 ft
Overcast 5000 ft
Heat Index 77 °F
Dew Point 75 °F
Humidity 95%
Rainfall 1.76 in
Snow Depth Not available.
6:13 AM 8:06 PM
Last Quarter, 42% visible
SPECI KGLH 271517Z AUTO 26006KT 10SM BKN006 BKN017 OVC050 25/23 A2997 RMK AO2 RAE03 CIG 004V008 P0000 T02500233
Pressure 29.97 in
Visibility 10.0 miles
Clouds Mostly Cloudy 600 ft
Mostly Cloudy 1700 ft
Overcast 5000 ft
Heat Index 77 °F
Dew Point 75 °F
Humidity 95%
Rainfall 1.76 in
Snow Depth Not available.
6:13 AM 8:06 PM
Last Quarter, 42% visible
SPECI KGLH 271517Z AUTO 26006KT 10SM BKN006 BKN017 OVC050 25/23 A2997 RMK AO2 RAE03 CIG 004V008 P0000 T02500233

10-Day Weather Forecast

Almanac

Astronomy

Jul. 27, 2016 Rise Set
Actual Time
Civil Twilight
Nautical Twilight
Astronomical Twilight
Moon
Length of Visible Light
Length of Day
Tomorrow will be .
, % of the Moon is Illuminated

Today's Extremes

State Highs State Lows

Community

WunderPhotos

Upload Photos

1,927,859 photos uploaded!

WunderBlog® & News

Nearby

Air Quality

  Air Quality AQ Index Pollutant
Not available.

Snow Depth

Station Depth Elevation

Earthquake Activity

City Distance Mag. Time & Date
Minimum magnitude displayed is 2.5.

Coastal Water Temperatures

Place Temperature

Stations

Nearby Weather Stations

Station Location Temp. Windchill Dew Point Humidity Wind Precip. Elev Updated Type
                   

Watches & Warnings

There are currently no watches in effect.